Time;durP1;ratioP1;P1;durP2;ratioP2;P2;SDS_P1;SDS_P2;PMS_P1;PMS_P2;Temp;Humidity;BMP_temperature;BMP_pressure;BME280_temperature;BME280_humidity;BME280_pressure;Samples;Min_cycle;Max_cycle;Signal;HPM_P1;HPM_P2
2023/07/17 00:01:34;;;;;;;5.30;3.58;;;;;;;;;;5043266;28;20052;-51
2023/07/17 00:04:01;;;;;;;5.25;3.95;;;;;;;;;;5044175;28;20067;-49
2023/07/17 00:06:28;;;;;;;4.70;3.80;;;;;;;;;;5044071;28;20041;-47
2023/07/17 00:08:54;;;;;;;8.50;4.15;;;;;;;;;;5044039;28;20029;-53
2023/07/17 00:11:21;;;;;;;7.18;5.50;;;;;;;;;;5044321;28;20028;-49
2023/07/17 00:13:48;;;;;;;9.60;5.43;;;;;;;;;;5043695;28;20288;-47
2023/07/17 00:16:14;;;;;;;6.15;4.75;;;;;;;;;;5043542;28;20045;-55
2023/07/17 00:18:41;;;;;;;7.15;4.60;;;;;;;;;;5043928;28;20025;-52
2023/07/17 00:21:08;;;;;;;6.00;4.13;;;;;;;;;;5043632;28;20043;-52
2023/07/17 00:23:34;;;;;;;5.40;4.10;;;;;;;;;;5043942;28;20360;-46
2023/07/17 00:26:01;;;;;;;7.82;3.53;;;;;;;;;;5043855;28;20089;-47
2023/07/17 00:28:28;;;;;;;3.97;3.00;;;;;;;;;;5043719;28;20092;-49
2023/07/17 00:30:54;;;;;;;4.85;2.92;;;;;;;;;;5043781;28;20049;-50
2023/07/17 00:33:21;;;;;;;5.93;3.20;;;;;;;;;;5043746;28;20032;-49
2023/07/17 00:35:48;;;;;;;5.28;3.13;;;;;;;;;;5043572;28;20034;-47
2023/07/17 00:38:14;;;;;;;6.18;3.13;;;;;;;;;;5043730;28;20030;-52
2023/07/17 00:40:41;;;;;;;4.68;2.75;;;;;;;;;;5043690;28;20013;-52
2023/07/17 00:43:11;;;;;;;9.15;8.20;;;;;;;;;;5043745;28;20092;-52
2023/07/17 00:45:39;;;;;;;4.30;3.55;;;;;;;;;;5043646;28;20045;-49
2023/07/17 00:48:06;;;;;;;4.68;2.70;;;;;;;;;;5043727;28;20092;-50
2023/07/17 00:50:33;;;;;;;4.18;3.00;;;;;;;;;;5043405;28;20096;-51
2023/07/17 00:53:00;;;;;;;5.00;2.90;;;;;;;;;;5043490;28;20038;-52
2023/07/17 00:55:27;;;;;;;5.13;2.78;;;;;;;;;;5043552;28;20018;-51
2023/07/17 00:57:54;;;;;;;4.35;2.53;;;;;;;;;;5043797;28;20030;-51
2023/07/17 01:00:22;;;;;;;4.45;2.60;;;;;;;;;;5043525;28;20037;-53
2023/07/17 01:02:49;;;;;;;9.23;2.53;;;;;;;;;;5042946;28;20071;-58
2023/07/17 01:05:16;;;;;;;5.35;2.05;;;;;;;;;;5066933;28;20082;-51
2023/07/17 01:07:42;;;;;;;4.10;1.70;;;;;;;;;;5061212;28;20118;-50
2023/07/17 01:10:09;;;;;;;2.95;1.50;;;;;;;;;;5064558;28;20313;-50
2023/07/17 01:12:37;;;;;;;3.45;1.50;;;;;;;;;;5069706;28;20036;-53
2023/07/17 01:15:04;;;;;;;3.78;1.58;;;;;;;;;;5043425;28;20045;-52
2023/07/17 01:17:32;;;;;;;3.75;1.50;;;;;;;;;;5043731;28;20073;-51
2023/07/17 01:19:59;;;;;;;5.32;1.65;;;;;;;;;;5043163;28;20040;-54
2023/07/17 01:22:30;;;;;;;4.97;1.63;;;;;;;;;;5042898;28;20076;-54
2023/07/17 01:24:56;;;;;;;3.65;1.60;;;;;;;;;;5043235;28;20026;-47
2023/07/17 01:27:23;;;;;;;4.18;1.80;;;;;;;;;;5044921;28;20034;-50
2023/07/17 01:29:50;;;;;;;5.03;2.08;;;;;;;;;;5063379;28;20035;-53
2023/07/17 01:32:20;;;;;;;4.07;2.03;;;;;;;;;;5066645;28;20021;-53
2023/07/17 01:34:47;;;;;;;6.50;2.80;;;;;;;;;;5066700;28;20044;-53
2023/07/17 01:37:13;;;;;;;3.25;2.10;;;;;;;;;;5066881;28;20031;-51
2023/07/17 01:39:41;;;;;;;6.72;3.00;;;;;;;;;;5065055;28;20182;-46
2023/07/17 01:42:08;;;;;;;4.55;2.70;;;;;;;;;;5066668;28;20032;-53
2023/07/17 01:44:34;;;;;;;5.28;2.67;;;;;;;;;;5066542;28;20035;-54
2023/07/17 01:47:01;;;;;;;6.18;2.75;;;;;;;;;;5066411;28;20355;-54
2023/07/17 01:49:28;;;;;;;7.13;2.70;;;;;;;;;;5069427;28;20037;-48
2023/07/17 01:51:54;;;;;;;4.53;3.00;;;;;;;;;;5074814;28;20036;-56
2023/07/17 01:54:21;;;;;;;11.45;3.58;;;;;;;;;;5066190;28;20020;-54
2023/07/17 01:56:47;;;;;;;7.38;3.30;;;;;;;;;;5065152;28;20240;-54
2023/07/17 01:59:14;;;;;;;10.35;3.72;;;;;;;;;;5066273;28;20032;-52
2023/07/17 02:01:41;;;;;;;6.55;3.10;;;;;;;;;;5065357;28;20340;-48
2023/07/17 02:04:07;;;;;;;6.07;3.40;;;;;;;;;;5065230;28;20059;-51
2023/07/17 02:06:34;;;;;;;6.82;3.35;;;;;;;;;;5064379;28;20028;-52
2023/07/17 02:09:01;;;;;;;7.90;3.50;;;;;;;;;;5065638;28;20021;-54
2023/07/17 02:11:30;;;;;;;8.55;2.92;;;;;;;;;;5065340;28;20032;-50
2023/07/17 02:13:57;;;;;;;5.07;2.75;;;;;;;;;;5065899;28;20075;-57
2023/07/17 02:16:23;;;;;;;4.78;2.38;;;;;;;;;;5066195;28;20024;-51
2023/07/17 02:18:50;;;;;;;3.80;2.15;;;;;;;;;;5066066;28;20083;-51
2023/07/17 02:21:17;;;;;;;4.60;2.40;;;;;;;;;;5065810;28;20051;-54
2023/07/17 02:23:44;;;;;;;3.85;2.05;;;;;;;;;;5064764;28;20329;-54
2023/07/17 02:26:11;;;;;;;4.05;2.33;;;;;;;;;;5065996;28;20032;-53
2023/07/17 02:28:38;;;;;;;4.82;2.30;;;;;;;;;;5068111;28;20087;-52
2023/07/17 02:31:05;;;;;;;4.90;2.17;;;;;;;;;;5073535;28;20028;-54
2023/07/17 02:33:32;;;;;;;9.30;5.85;;;;;;;;;;5065535;28;20033;-54
2023/07/17 02:35:58;;;;;;;8.88;6.45;;;;;;;;;;5065639;28;20041;-49
2023/07/17 02:38:25;;;;;;;6.75;4.60;;;;;;;;;;5064925;28;20025;-53
2023/07/17 02:40:51;;;;;;;7.43;3.83;;;;;;;;;;5065574;28;20098;-51
2023/07/17 02:43:18;;;;;;;4.18;2.90;;;;;;;;;;5065386;28;20037;-55
2023/07/17 02:45:45;;;;;;;4.93;2.90;;;;;;;;;;5065404;28;20059;-50
2023/07/17 02:48:12;;;;;;;7.78;2.72;;;;;;;;;;5065394;28;20041;-52
2023/07/17 02:50:38;;;;;;;4.82;2.58;;;;;;;;;;5062181;28;20033;-54
2023/07/17 02:53:05;;;;;;;4.57;2.40;;;;;;;;;;5064977;28;20091;-55
2023/07/17 02:55:32;;;;;;;4.25;2.22;;;;;;;;;;5065274;28;20028;-49
2023/07/17 02:57:59;;;;;;;3.95;1.80;;;;;;;;;;5065195;28;20351;-48
2023/07/17 03:00:25;;;;;;;5.15;1.75;;;;;;;;;;5065385;28;20048;-48
2023/07/17 03:02:52;;;;;;;3.05;1.45;;;;;;;;;;5065611;28;20301;-49
2023/07/17 03:05:19;;;;;;;7.38;1.30;;;;;;;;;;5065081;28;20041;-53
2023/07/17 03:07:46;;;;;;;5.22;1.48;;;;;;;;;;5064015;28;20044;-55
2023/07/17 03:10:13;;;;;;;3.45;1.20;;;;;;;;;;5065102;28;20056;-52
2023/07/17 03:12:41;;;;;;;5.00;1.02;;;;;;;;;;5065164;28;20033;-52
2023/07/17 03:15:08;;;;;;;3.00;0.85;;;;;;;;;;5065148;28;20017;-52
2023/07/17 03:17:35;;;;;;;3.33;0.80;;;;;;;;;;5065302;28;20092;-54
2023/07/17 03:20:06;;;;;;;2.58;0.80;;;;;;;;;;5064729;28;20091;-53
2023/07/17 03:22:35;;;;;;;6.25;1.08;;;;;;;;;;5064756;28;20080;-50
2023/07/17 03:25:02;;;;;;;3.50;0.95;;;;;;;;;;5064886;28;20036;-53
2023/07/17 03:27:29;;;;;;;2.53;0.85;;;;;;;;;;5065050;28;20071;-50
2023/07/17 03:29:56;;;;;;;2.47;0.60;;;;;;;;;;5064782;28;20029;-53
2023/07/17 03:32:22;;;;;;;6.38;0.90;;;;;;;;;;5064984;28;20082;-54
2023/07/17 03:34:49;;;;;;;8.73;0.85;;;;;;;;;;5064480;28;20040;-54
2023/07/17 03:37:16;;;;;;;4.60;0.70;;;;;;;;;;5065056;28;20043;-48
2023/07/17 03:39:42;;;;;;;2.40;0.52;;;;;;;;;;5064502;28;20055;-53
2023/07/17 03:42:12;;;;;;;6.65;0.82;;;;;;;;;;5064653;28;20017;-54
2023/07/17 03:44:39;;;;;;;7.13;0.88;;;;;;;;;;5064432;28;20029;-54
2023/07/17 03:47:06;;;;;;;3.70;0.70;;;;;;;;;;5064774;28;20056;-45
2023/07/17 03:49:33;;;;;;;4.60;1.08;;;;;;;;;;5064263;28;20055;-51
2023/07/17 03:52:00;;;;;;;5.30;1.00;;;;;;;;;;5063767;28;20025;-53
2023/07/17 03:54:27;;;;;;;3.80;1.00;;;;;;;;;;5064225;28;20044;-51
2023/07/17 03:56:53;;;;;;;4.57;0.73;;;;;;;;;;5064388;28;20029;-53
2023/07/17 03:59:24;;;;;;;5.45;0.90;;;;;;;;;;5064300;28;20066;-46
2023/07/17 04:01:51;;;;;;;6.70;0.90;;;;;;;;;;5064532;28;20031;-56
2023/07/17 04:04:18;;;;;;;5.43;0.80;;;;;;;;;;5063997;28;20041;-51
2023/07/17 04:06:45;;;;;;;3.72;0.60;;;;;;;;;;5064458;28;20021;-50
2023/07/17 04:09:12;;;;;;;5.82;1.20;;;;;;;;;;5064079;28;20036;-45
2023/07/17 04:11:41;;;;;;;3.08;0.70;;;;;;;;;;5064020;28;20106;-51
2023/07/17 04:14:08;;;;;;;4.50;0.80;;;;;;;;;;5063966;28;20083;-54
2023/07/17 04:16:36;;;;;;;8.55;0.90;;;;;;;;;;5064205;28;20044;-50
2023/07/17 04:19:03;;;;;;;6.15;0.85;;;;;;;;;;5063848;28;20064;-49
2023/07/17 04:21:30;;;;;;;3.75;0.90;;;;;;;;;;5063827;28;20041;-47
2023/07/17 04:23:56;;;;;;;4.95;0.57;;;;;;;;;;5063853;28;20324;-46
2023/07/17 04:26:23;;;;;;;4.25;0.75;;;;;;;;;;5063874;28;20039;-52
2023/07/17 04:28:50;;;;;;;5.90;0.77;;;;;;;;;;5063854;28;20021;-51
2023/07/17 04:31:17;;;;;;;4.38;0.60;;;;;;;;;;5073408;28;20032;-50
2023/07/17 04:33:43;;;;;;;4.80;0.60;;;;;;;;;;5064731;28;20037;-53
2023/07/17 04:36:10;;;;;;;2.55;0.63;;;;;;;;;;5064148;28;20021;-53
2023/07/17 04:38:37;;;;;;;3.05;0.60;;;;;;;;;;5063779;28;20055;-49
2023/07/17 04:41:04;;;;;;;4.55;0.80;;;;;;;;;;5063760;28;20186;-51
2023/07/17 04:43:31;;;;;;;3.00;0.50;;;;;;;;;;5063912;28;20029;-51
2023/07/17 04:45:57;;;;;;;4.68;0.65;;;;;;;;;;5063690;28;20033;-48
2023/07/17 04:48:25;;;;;;;2.63;0.50;;;;;;;;;;5063444;28;20037;-59
2023/07/17 04:50:53;;;;;;;4.00;0.68;;;;;;;;;;5063538;28;20197;-47
2023/07/17 04:53:20;;;;;;;3.05;0.63;;;;;;;;;;5063473;28;20037;-49
2023/07/17 04:55:48;;;;;;;2.72;0.68;;;;;;;;;;5063347;28;20078;-51
2023/07/17 04:58:15;;;;;;;3.53;0.70;;;;;;;;;;5063684;28;20044;-50
2023/07/17 05:00:45;;;;;;;2.42;0.60;;;;;;;;;;5063375;28;20036;-48
2023/07/17 05:03:16;;;;;;;2.25;0.60;;;;;;;;;;5066119;28;20096;-50
2023/07/17 05:05:51;;;;;;;4.22;0.80;;;;;;;;;;5067362;28;20033;-51
2023/07/17 05:08:18;;;;;;;2.42;0.68;;;;;;;;;;5067429;28;20037;-51
2023/07/17 05:10:45;;;;;;;2.42;0.60;;;;;;;;;;5067143;28;20033;-54
2023/07/17 05:13:12;;;;;;;2.58;0.40;;;;;;;;;;5067266;28;20041;-53
2023/07/17 05:15:42;;;;;;;3.80;0.60;;;;;;;;;;5067219;28;20048;-50
2023/07/17 05:18:08;;;;;;;4.88;0.60;;;;;;;;;;5067220;28;20352;-55
2023/07/17 05:20:35;;;;;;;3.17;0.65;;;;;;;;;;5067159;28;20031;-51
2023/07/17 05:23:01;;;;;;;3.55;0.55;;;;;;;;;;5067018;28;20113;-48
2023/07/17 05:25:28;;;;;;;4.93;0.73;;;;;;;;;;5066969;28;20198;-52
2023/07/17 05:27:55;;;;;;;2.63;0.73;;;;;;;;;;5067273;28;20037;-50
2023/07/17 05:30:21;;;;;;;6.63;0.82;;;;;;;;;;5067046;28;20024;-57
2023/07/17 05:32:48;;;;;;;2.97;0.55;;;;;;;;;;5067244;28;20096;-49
2023/07/17 05:35:15;;;;;;;5.28;0.70;;;;;;;;;;5067212;28;20075;-53
2023/07/17 05:37:41;;;;;;;7.07;0.80;;;;;;;;;;5067363;28;20081;-48
2023/07/17 05:40:10;;;;;;;5.00;0.93;;;;;;;;;;5066733;28;20033;-54
2023/07/17 05:42:37;;;;;;;5.13;0.70;;;;;;;;;;5067193;28;20021;-47
2023/07/17 05:45:04;;;;;;;5.28;1.00;;;;;;;;;;5067025;28;20077;-54
2023/07/17 05:47:31;;;;;;;3.95;0.63;;;;;;;;;;5066945;28;20024;-51
2023/07/17 05:49:57;;;;;;;6.70;0.88;;;;;;;;;;5066620;28;20212;-50
2023/07/17 05:52:24;;;;;;;4.60;0.90;;;;;;;;;;5066980;28;20080;-52
2023/07/17 05:54:51;;;;;;;4.40;0.70;;;;;;;;;;5066444;28;20033;-50
2023/07/17 05:57:17;;;;;;;6.20;0.80;;;;;;;;;;5066891;28;20036;-47
2023/07/17 05:59:44;;;;;;;5.07;0.90;;;;;;;;;;5066603;28;20021;-51
2023/07/17 06:02:10;;;;;;;4.78;0.80;;;;;;;;;;5066637;28;20082;-52
2023/07/17 06:04:37;;;;;;;4.50;0.60;;;;;;;;;;5066356;28;20028;-49
2023/07/17 06:07:05;;;;;;;1.92;0.75;;;;;;;;;;5066711;28;20088;-48
2023/07/17 06:09:34;;;;;;;2.70;0.60;;;;;;;;;;5066173;28;20082;-50
2023/07/17 06:12:01;;;;;;;6.07;0.57;;;;;;;;;;5066572;28;20079;-50
2023/07/17 06:14:28;;;;;;;4.45;0.50;;;;;;;;;;5065139;28;20032;-52
2023/07/17 06:16:54;;;;;;;5.95;1.02;;;;;;;;;;5066281;28;20040;-47
2023/07/17 06:19:21;;;;;;;7.10;0.73;;;;;;;;;;5066162;28;20029;-56
2023/07/17 06:21:48;;;;;;;2.83;0.70;;;;;;;;;;5066022;28;20095;-52
2023/07/17 06:24:14;;;;;;;4.03;1.05;;;;;;;;;;5065873;28;20044;-47
2023/07/17 06:26:42;;;;;;;7.10;0.88;;;;;;;;;;5065583;28;20036;-51
2023/07/17 06:29:11;;;;;;;4.10;0.63;;;;;;;;;;5074819;28;20030;-53
2023/07/17 06:31:38;;;;;;;3.47;0.68;;;;;;;;;;5086017;28;20095;-53
2023/07/17 06:34:05;;;;;;;2.75;0.60;;;;;;;;;;5085965;28;20036;-53
2023/07/17 06:36:31;;;;;;;1.80;0.60;;;;;;;;;;5086041;28;20024;-53
2023/07/17 06:38:58;;;;;;;7.25;0.70;;;;;;;;;;5085650;28;20082;-52
2023/07/17 06:41:25;;;;;;;3.55;0.57;;;;;;;;;;5085966;28;20065;-53
2023/07/17 06:43:52;;;;;;;5.32;0.70;;;;;;;;;;5076490;28;20083;-49
2023/07/17 06:46:18;;;;;;;4.18;0.70;;;;;;;;;;5065836;28;20071;-48
2023/07/17 06:48:45;;;;;;;4.07;1.02;;;;;;;;;;5065569;28;20078;-52
2023/07/17 06:51:12;;;;;;;3.25;0.50;;;;;;;;;;5065860;28;20084;-51
2023/07/17 06:53:38;;;;;;;6.45;0.70;;;;;;;;;;5065333;28;20041;-51
2023/07/17 06:56:05;;;;;;;2.25;0.60;;;;;;;;;;5065638;28;20032;-52
2023/07/17 06:58:32;;;;;;;3.08;0.60;;;;;;;;;;5065397;28;20080;-51
2023/07/17 07:00:59;;;;;;;5.20;0.90;;;;;;;;;;5065309;28;20033;-58
2023/07/17 07:03:26;;;;;;;3.67;0.45;;;;;;;;;;5065283;28;20087;-48
2023/07/17 07:06:00;;;;;;;3.80;1.02;;;;;;;;;;5065243;28;20025;-51
2023/07/17 07:08:29;;;;;;;5.40;0.70;;;;;;;;;;5065063;28;20111;-56
2023/07/17 07:10:57;;;;;;;3.22;0.63;;;;;;;;;;5065171;28;20186;-52
2023/07/17 07:13:24;;;;;;;6.95;1.00;;;;;;;;;;5065116;28;20029;-55
2023/07/17 07:15:51;;;;;;;6.55;1.00;;;;;;;;;;5064925;28;20108;-51
2023/07/17 07:18:18;;;;;;;2.97;0.82;;;;;;;;;;5065113;28;20056;-48
2023/07/17 07:20:46;;;;;;;4.20;0.60;;;;;;;;;;5064983;28;20252;-50
2023/07/17 07:23:12;;;;;;;6.35;0.90;;;;;;;;;;5064635;28;20106;-53
2023/07/17 07:25:39;;;;;;;6.68;1.20;;;;;;;;;;5064767;28;20059;-53
2023/07/17 07:28:06;;;;;;;5.00;0.90;;;;;;;;;;5065058;28;20198;-55
2023/07/17 07:30:32;;;;;;;5.68;0.90;;;;;;;;;;5064522;28;20047;-49
2023/07/17 07:32:59;;;;;;;2.97;0.60;;;;;;;;;;5064647;28;20039;-50
2023/07/17 07:35:26;;;;;;;3.05;1.13;;;;;;;;;;5064703;28;20287;-55
2023/07/17 07:37:52;;;;;;;4.40;1.20;;;;;;;;;;5064959;28;20052;-50
2023/07/17 07:40:19;;;;;;;4.93;1.10;;;;;;;;;;5064619;28;20056;-50
2023/07/17 07:42:46;;;;;;;5.53;1.00;;;;;;;;;;5065063;28;20103;-50
2023/07/17 07:45:13;;;;;;;5.28;1.13;;;;;;;;;;5064407;28;20048;-52
2023/07/17 07:47:40;;;;;;;2.63;0.88;;;;;;;;;;5064951;28;20033;-53
2023/07/17 07:50:07;;;;;;;4.70;1.25;;;;;;;;;;5064539;28;20025;-50
2023/07/17 07:52:34;;;;;;;3.95;1.15;;;;;;;;;;5064598;28;20052;-51
2023/07/17 07:55:01;;;;;;;4.70;1.30;;;;;;;;;;5064438;28;20088;-52
2023/07/17 07:57:28;;;;;;;7.97;1.50;;;;;;;;;;5064775;28;20297;-49
2023/07/17 07:59:54;;;;;;;6.53;1.55;;;;;;;;;;5064184;28;20037;-57
2023/07/17 08:02:21;;;;;;;8.25;1.17;;;;;;;;;;5064717;28;20036;-52
2023/07/17 08:04:47;;;;;;;6.93;1.38;;;;;;;;;;5064207;28;20032;-52
2023/07/17 08:07:14;;;;;;;5.25;1.15;;;;;;;;;;5064559;28;20033;-42
2023/07/17 08:09:41;;;;;;;5.93;1.52;;;;;;;;;;5064018;28;20072;-45
2023/07/17 08:12:08;;;;;;;7.20;1.38;;;;;;;;;;5064327;28;20040;-50
2023/07/17 08:14:34;;;;;;;7.30;1.48;;;;;;;;;;5064290;28;20100;-50
2023/07/17 08:17:02;;;;;;;8.43;1.80;;;;;;;;;;5063776;28;20029;-45
2023/07/17 08:19:29;;;;;;;8.18;1.35;;;;;;;;;;5063984;28;20214;-57
2023/07/17 08:21:55;;;;;;;4.55;1.15;;;;;;;;;;5064077;28;20040;-52
2023/07/17 08:24:22;;;;;;;5.10;1.35;;;;;;;;;;5063799;28;20043;-51
2023/07/17 08:26:49;;;;;;;6.45;1.38;;;;;;;;;;5064103;28;20020;-58
2023/07/17 08:29:16;;;;;;;6.15;1.80;;;;;;;;;;5063926;28;20045;-45
2023/07/17 08:31:42;;;;;;;8.15;1.30;;;;;;;;;;5063823;28;20055;-50
2023/07/17 08:34:09;;;;;;;7.95;1.58;;;;;;;;;;5063890;28;20029;-44
2023/07/17 08:36:36;;;;;;;9.35;1.60;;;;;;;;;;5063422;28;20052;-51
2023/07/17 08:39:05;;;;;;;6.95;1.50;;;;;;;;;;5063568;28;20036;-51
2023/07/17 08:41:31;;;;;;;10.45;1.55;;;;;;;;;;5063370;28;20021;-51
2023/07/17 08:43:59;;;;;;;7.05;1.60;;;;;;;;;;5074516;28;20399;-51
2023/07/17 08:46:26;;;;;;;8.55;1.60;;;;;;;;;;5083764;28;20036;-45
2023/07/17 08:48:54;;;;;;;7.65;1.60;;;;;;;;;;5083717;28;20025;-50
2023/07/17 08:51:22;;;;;;;10.18;1.70;;;;;;;;;;5081300;28;20212;-48
2023/07/17 08:53:49;;;;;;;8.85;1.85;;;;;;;;;;5073576;28;20039;-48
2023/07/17 08:56:17;;;;;;;8.57;1.65;;;;;;;;;;5068770;28;20044;-50
2023/07/17 08:58:44;;;;;;;6.22;1.85;;;;;;;;;;5079258;28;20043;-50
2023/07/17 09:01:11;;;;;;;9.02;1.65;;;;;;;;;;5083496;28;20028;-47
2023/07/17 09:03:38;;;;;;;7.03;1.70;;;;;;;;;;5083573;28;20028;-50
2023/07/17 09:06:05;;;;;;;4.90;1.40;;;;;;;;;;5083713;28;20043;-58
2023/07/17 09:08:32;;;;;;;9.52;1.80;;;;;;;;;;5083312;28;20028;-51
2023/07/17 09:11:03;;;;;;;5.63;1.38;;;;;;;;;;5083507;28;20020;-52
2023/07/17 09:13:45;;;;;;;8.65;1.70;;;;;;;;;;5083359;28;20214;-49
2023/07/17 09:16:11;;;;;;;;;;;;;;;;;;5084059;28;20033;-47
2023/07/17 09:18:38;;;;;;;8.07;1.60;;;;;;;;;;5083359;28;19908;-52
2023/07/17 09:21:05;;;;;;;5.90;1.38;;;;;;;;;;5083169;28;20025;-46
2023/07/17 09:23:38;;;;;;;6.80;1.60;;;;;;;;;;5083323;28;20028;-47
2023/07/17 09:26:05;;;;;;;7.82;1.90;;;;;;;;;;5083367;28;20035;-49
2023/07/17 09:28:37;;;;;;;6.80;1.60;;;;;;;;;;5083183;28;20052;-48
2023/07/17 09:31:04;;;;;;;5.63;1.42;;;;;;;;;;5083385;28;20046;-48
2023/07/17 09:33:36;;;;;;;5.53;1.55;;;;;;;;;;5083228;28;20032;-47
2023/07/17 09:36:03;;;;;;;12.80;1.85;;;;;;;;;;5083279;28;20095;-50
2023/07/17 09:38:35;;;;;;;6.60;1.73;;;;;;;;;;5083159;28;20020;-47
2023/07/17 09:41:17;;;;;;;6.10;1.50;;;;;;;;;;5083079;28;20039;-49
2023/07/17 09:43:43;;;;;;;;;;;;;;;;;;5083578;28;20032;-49
2023/07/17 09:46:10;;;;;;;6.60;1.80;;;;;;;;;;5083272;28;19904;-46
2023/07/17 09:48:37;;;;;;;6.60;1.65;;;;;;;;;;5083117;28;20059;-50
2023/07/17 09:51:04;;;;;;;7.13;1.83;;;;;;;;;;5086741;28;20020;-51
2023/07/17 09:53:32;;;;;;;6.53;1.55;;;;;;;;;;5086598;28;20043;-55
2023/07/17 09:55:59;;;;;;;4.05;1.23;;;;;;;;;;5086477;28;20356;-51
2023/07/17 09:58:29;;;;;;;6.78;1.45;;;;;;;;;;5086836;28;20235;-55
2023/07/17 10:00:57;;;;;;;4.68;1.17;;;;;;;;;;5086487;28;20025;-50
2023/07/17 10:03:24;;;;;;;7.53;1.50;;;;;;;;;;5086529;28;20048;-48
2023/07/17 10:05:51;;;;;;;5.85;1.58;;;;;;;;;;5086360;28;20128;-49
2023/07/17 10:08:18;;;;;;;8.35;1.38;;;;;;;;;;5086411;28;20036;-48
2023/07/17 10:10:45;;;;;;;8.75;1.27;;;;;;;;;;5086206;28;20237;-48
2023/07/17 10:13:12;;;;;;;4.10;1.33;;;;;;;;;;5086168;28;20028;-49
2023/07/17 10:15:39;;;;;;;8.30;1.65;;;;;;;;;;5086140;28;20031;-51
2023/07/17 10:18:11;;;;;;;3.95;1.45;;;;;;;;;;5086150;28;20335;-47
2023/07/17 10:20:38;;;;;;;6.55;1.42;;;;;;;;;;5086160;28;20200;-51
2023/07/17 10:23:25;;;;;;;2.90;1.15;;;;;;;;;;5085807;28;20062;-50
2023/07/17 10:25:53;;;;;;;10.73;1.95;;;;;;;;;;5085965;28;20024;-48
2023/07/17 10:28:30;;;;;;;7.22;1.63;;;;;;;;;;5085823;28;20037;-44
2023/07/17 10:31:04;;;;;;;11.52;1.58;;;;;;;;;;5085820;28;20074;-48
2023/07/17 10:33:36;;;;;;;9.52;1.80;;;;;;;;;;5085734;28;20037;-51
2023/07/17 10:36:02;;;;;;;9.45;2.03;;;;;;;;;;5085894;28;20033;-49
2023/07/17 10:38:30;;;;;;;9.02;1.52;;;;;;;;;;5085847;28;20106;-48
2023/07/17 10:41:06;;;;;;;10.02;1.73;;;;;;;;;;5085687;28;20020;-52
2023/07/17 10:43:34;;;;;;;9.95;1.60;;;;;;;;;;5085610;28;20028;-51
2023/07/17 10:46:01;;;;;;;6.53;1.75;;;;;;;;;;5085613;28;20028;-52
2023/07/17 10:48:31;;;;;;;8.45;1.80;;;;;;;;;;5078640;28;20089;-53
2023/07/17 10:50:58;;;;;;;7.15;2.15;;;;;;;;;;5070093;28;20105;-51
2023/07/17 10:53:24;;;;;;;4.35;1.58;;;;;;;;;;5065476;28;20234;-46
2023/07/17 10:55:51;;;;;;;8.95;2.10;;;;;;;;;;5065163;28;20032;-52
2023/07/17 10:58:19;;;;;;;5.55;1.92;;;;;;;;;;5065384;28;20037;-51
2023/07/17 11:00:45;;;;;;;5.28;1.58;;;;;;;;;;5064831;28;20017;-50
2023/07/17 11:03:16;;;;;;;10.82;1.98;;;;;;;;;;5064705;28;20348;-52
2023/07/17 11:05:43;;;;;;;7.63;1.88;;;;;;;;;;5065241;28;20040;-54
2023/07/17 11:08:11;;;;;;;11.25;2.20;;;;;;;;;;5065213;28;20052;-55
2023/07/17 11:10:41;;;;;;;8.15;1.80;;;;;;;;;;5065192;28;20324;-49
2023/07/17 11:13:08;;;;;;;7.10;2.22;;;;;;;;;;5065059;28;20036;-48
2023/07/17 11:15:36;;;;;;;10.50;2.28;;;;;;;;;;5064935;28;20040;-54
2023/07/17 11:18:05;;;;;;;7.75;1.92;;;;;;;;;;5064841;28;20052;-52
2023/07/17 11:20:33;;;;;;;11.93;2.67;;;;;;;;;;5064938;28;20051;-49
2023/07/17 11:23:00;;;;;;;11.48;2.92;;;;;;;;;;5064895;28;20049;-49
2023/07/17 11:25:28;;;;;;;15.52;2.80;;;;;;;;;;5064839;28;20031;-48
2023/07/17 11:27:55;;;;;;;11.30;2.63;;;;;;;;;;5065352;28;20036;-52
2023/07/17 11:30:25;;;;;;;8.88;2.38;;;;;;;;;;5069484;28;20024;-55
2023/07/17 11:32:56;;;;;;;10.68;2.75;;;;;;;;;;5071403;28;20041;-48
2023/07/17 11:35:23;;;;;;;16.07;3.00;;;;;;;;;;5060420;28;20029;-55
2023/07/17 11:37:49;;;;;;;9.07;2.60;;;;;;;;;;5062385;28;20458;-50
2023/07/17 11:40:16;;;;;;;9.55;2.85;;;;;;;;;;5069669;28;20023;-49
2023/07/17 11:42:55;;;;;;;9.48;3.10;;;;;;;;;;5064586;28;20029;-52
2023/07/17 11:45:25;;;;;;;10.98;3.25;;;;;;;;;;5071899;28;20095;-54
2023/07/17 11:47:53;;;;;;;13.57;3.30;;;;;;;;;;5071542;28;20208;-53
2023/07/17 11:50:20;;;;;;;11.88;2.80;;;;;;;;;;5073607;28;20312;-53
2023/07/17 11:52:47;;;;;;;11.68;3.20;;;;;;;;;;5075177;28;20016;-49
2023/07/17 11:55:14;;;;;;;10.10;2.78;;;;;;;;;;5073543;28;20260;-47
2023/07/17 11:57:40;;;;;;;8.98;2.40;;;;;;;;;;5076344;28;20293;-50
2023/07/17 12:00:07;;;;;;;11.20;3.20;;;;;;;;;;5062604;28;20313;-49
2023/07/17 12:02:34;;;;;;;12.55;3.10;;;;;;;;;;5047713;28;20092;-54
2023/07/17 12:05:01;;;;;;;10.88;2.65;;;;;;;;;;5043279;28;20075;-58
2023/07/17 12:07:28;;;;;;;10.07;2.83;;;;;;;;;;5042407;28;20362;-54
2023/07/17 12:09:54;;;;;;;14.95;3.13;;;;;;;;;;5043505;28;20103;-55
2023/07/17 12:12:21;;;;;;;11.07;2.88;;;;;;;;;;5043754;28;20030;-50
2023/07/17 12:14:48;;;;;;;11.35;3.22;;;;;;;;;;5043364;28;20081;-48
2023/07/17 12:17:14;;;;;;;12.93;3.25;;;;;;;;;;5042701;28;20221;-55
2023/07/17 12:19:42;;;;;;;9.90;2.88;;;;;;;;;;5043597;28;20094;-52
2023/07/17 12:22:09;;;;;;;11.55;3.13;;;;;;;;;;5043740;28;20053;-53
2023/07/17 12:24:37;;;;;;;14.48;3.33;;;;;;;;;;5043696;28;20083;-52
2023/07/17 12:27:03;;;;;;;11.57;2.83;;;;;;;;;;5043931;28;20309;-55
2023/07/17 12:29:31;;;;;;;11.38;3.00;;;;;;;;;;5043766;28;20032;-52
2023/07/17 12:31:57;;;;;;;13.10;3.00;;;;;;;;;;5044129;28;20033;-56
2023/07/17 12:34:24;;;;;;;9.80;2.63;;;;;;;;;;5043810;28;20041;-57
2023/07/17 12:36:51;;;;;;;9.10;2.78;;;;;;;;;;5043866;28;20290;-51
2023/07/17 12:39:22;;;;;;;9.75;2.95;;;;;;;;;;5043757;28;20225;-50
2023/07/17 12:41:49;;;;;;;12.02;2.67;;;;;;;;;;5044116;28;20050;-50
2023/07/17 12:44:15;;;;;;;8.25;2.75;;;;;;;;;;5043558;28;20033;-54
2023/07/17 12:46:42;;;;;;;11.00;3.10;;;;;;;;;;5043854;28;20268;-54
2023/07/17 12:49:10;;;;;;;10.90;2.60;;;;;;;;;;5043712;28;20210;-53
2023/07/17 12:51:37;;;;;;;8.00;2.22;;;;;;;;;;5043945;28;20282;-55
2023/07/17 12:54:03;;;;;;;9.75;2.60;;;;;;;;;;5043525;28;20037;-54
2023/07/17 12:56:30;;;;;;;11.23;3.00;;;;;;;;;;5043848;28;20036;-50
2023/07/17 12:58:57;;;;;;;11.57;3.03;;;;;;;;;;5043480;28;20081;-53
2023/07/17 13:01:24;;;;;;;9.70;2.55;;;;;;;;;;5043780;28;20033;-54
2023/07/17 13:03:51;;;;;;;16.58;2.75;;;;;;;;;;5043529;28;20052;-54
2023/07/17 13:06:19;;;;;;;11.63;2.42;;;;;;;;;;5043573;28;20025;-51
2023/07/17 13:08:46;;;;;;;9.43;2.72;;;;;;;;;;5043477;28;20103;-49
2023/07/17 13:11:13;;;;;;;8.70;2.40;;;;;;;;;;5043508;28;20256;-50
2023/07/17 13:13:39;;;;;;;9.40;2.55;;;;;;;;;;5043274;28;20052;-50
2023/07/17 13:16:07;;;;;;;7.80;2.28;;;;;;;;;;5043417;28;20088;-50
2023/07/17 13:18:34;;;;;;;7.20;2.50;;;;;;;;;;5043399;28;20224;-55
2023/07/17 13:21:00;;;;;;;8.95;2.15;;;;;;;;;;5043321;28;20017;-54
2023/07/17 13:23:27;;;;;;;8.90;2.42;;;;;;;;;;5044756;28;20057;-56
2023/07/17 13:25:54;;;;;;;7.50;2.50;;;;;;;;;;5047215;28;20037;-49
2023/07/17 13:28:20;;;;;;;6.80;2.25;;;;;;;;;;5047018;28;20029;-53
2023/07/17 13:30:47;;;;;;;9.43;2.35;;;;;;;;;;5047069;28;20041;-54
2023/07/17 13:33:14;;;;;;;10.73;2.50;;;;;;;;;;5046984;28;20068;-50
2023/07/17 13:35:40;;;;;;;7.68;2.45;;;;;;;;;;5046881;28;20024;-52
2023/07/17 13:38:08;;;;;;;8.43;2.55;;;;;;;;;;5046902;28;20034;-50
2023/07/17 13:40:35;;;;;;;7.47;2.50;;;;;;;;;;5065242;28;20259;-57
2023/07/17 13:43:01;;;;;;;7.63;2.03;;;;;;;;;;5066785;28;20094;-54
2023/07/17 13:45:28;;;;;;;7.70;2.47;;;;;;;;;;5066783;28;20029;-54
2023/07/17 13:47:55;;;;;;;7.05;2.00;;;;;;;;;;5067014;28;20096;-55
2023/07/17 13:50:21;;;;;;;8.70;2.90;;;;;;;;;;5066553;28;20048;-52
2023/07/17 13:52:48;;;;;;;8.68;2.30;;;;;;;;;;5066970;28;20038;-52
2023/07/17 13:55:15;;;;;;;8.93;2.40;;;;;;;;;;5066564;28;20187;-51
2023/07/17 13:57:41;;;;;;;10.93;2.80;;;;;;;;;;5066973;28;20020;-53
2023/07/17 14:00:08;;;;;;;7.40;2.10;;;;;;;;;;5066377;28;20036;-51
2023/07/17 14:02:35;;;;;;;8.25;2.17;;;;;;;;;;5066355;28;20212;-52
2023/07/17 14:05:02;;;;;;;8.30;2.13;;;;;;;;;;5064945;28;20021;-57
2023/07/17 14:07:28;;;;;;;6.95;2.30;;;;;;;;;;5065792;28;20052;-53
2023/07/17 14:09:55;;;;;;;8.85;2.42;;;;;;;;;;5066306;28;20032;-51
2023/07/17 14:12:22;;;;;;;7.28;2.42;;;;;;;;;;5066608;28;20021;-51
2023/07/17 14:14:48;;;;;;;18.08;3.38;;;;;;;;;;5065985;28;20064;-48
2023/07/17 14:17:15;;;;;;;8.38;2.30;;;;;;;;;;5066447;28;20025;-49
2023/07/17 14:19:42;;;;;;;9.63;2.80;;;;;;;;;;5066050;28;20029;-46
2023/07/17 14:22:08;;;;;;;8.98;2.60;;;;;;;;;;5065434;28;20053;-43
2023/07/17 14:24:35;;;;;;;9.77;2.67;;;;;;;;;;5072401;28;20029;-44
2023/07/17 14:27:02;;;;;;;6.80;2.40;;;;;;;;;;5074333;28;20301;-49
2023/07/17 14:29:29;;;;;;;11.10;2.42;;;;;;;;;;5052993;28;20064;-45
2023/07/17 14:31:55;;;;;;;10.32;2.45;;;;;;;;;;5066109;28;20029;-43
2023/07/17 14:34:25;;;;;;;10.60;2.67;;;;;;;;;;5065203;28;20047;-45
2023/07/17 14:36:52;;;;;;;8.75;2.65;;;;;;;;;;5065405;28;20020;-44
2023/07/17 14:39:19;;;;;;;12.00;2.72;;;;;;;;;;5072603;28;20115;-47
2023/07/17 14:41:46;;;;;;;6.93;2.17;;;;;;;;;;5085945;28;20021;-44